createdAt,value
2018-02-17T00:02:05.515Z,15.73
2018-02-17T00:04:33.100Z,17.13
2018-02-17T00:07:00.675Z,13.50
2018-02-17T00:09:29.036Z,13.43
2018-02-17T00:11:57.858Z,14.00
2018-02-17T00:14:25.452Z,14.17
2018-02-17T00:16:53.049Z,12.83
2018-02-17T00:19:21.449Z,17.07
2018-02-17T00:21:49.782Z,17.07
2018-02-17T00:24:18.259Z,19.13
2018-02-17T00:26:46.778Z,17.53
2018-02-17T00:29:14.421Z,25.83
2018-02-17T00:31:42.027Z,21.63
2018-02-17T00:34:10.358Z,20.83
2018-02-17T00:36:37.921Z,20.60
2018-02-17T00:39:05.516Z,15.27
2018-02-17T00:41:33.889Z,21.47
2018-02-17T00:44:01.457Z,21.37
2018-02-17T00:46:29.793Z,12.63
2018-02-17T00:48:57.395Z,19.73
2018-02-17T00:51:25.733Z,18.30
2018-02-17T00:53:54.096Z,16.73
2018-02-17T00:56:21.696Z,15.00
2018-02-17T00:58:49.302Z,17.90
2018-02-17T01:01:16.896Z,14.77
2018-02-17T01:03:44.454Z,21.77
2018-02-17T01:06:12.078Z,21.67
2018-02-17T01:08:39.637Z,18.23
2018-02-17T01:11:07.199Z,19.83
2018-02-17T01:13:34.825Z,19.00
2018-02-17T01:16:02.389Z,17.90
2018-02-17T01:18:30.022Z,23.27
2018-02-17T01:20:57.588Z,19.57
2018-02-17T01:23:25.155Z,15.70
2018-02-17T01:25:52.748Z,16.77
2018-02-17T01:28:21.082Z,24.33
2018-02-17T01:30:48.684Z,20.93
2018-02-17T01:33:17.015Z,21.10
2018-02-17T01:35:44.614Z,22.93
2018-02-17T01:38:12.221Z,18.43
2018-02-17T01:40:39.777Z,22.70
2018-02-17T01:43:07.375Z,19.93
2018-02-17T01:45:34.994Z,21.77
2018-02-17T01:48:02.593Z,21.90
2018-02-17T01:50:33.073Z,21.80
2018-02-17T01:53:04.107Z,29.83
2018-02-17T01:55:32.444Z,28.67
2018-02-17T01:58:00.010Z,27.70
2018-02-17T02:00:27.612Z,18.90
2018-02-17T02:02:55.226Z,20.43
2018-02-17T02:05:22.830Z,20.33
2018-02-17T02:07:50.454Z,22.10
2018-02-17T02:10:18.012Z,19.47
2018-02-17T02:12:45.616Z,19.90
2018-02-17T02:15:13.204Z,22.13
2018-02-17T02:17:40.774Z,21.97
2018-02-17T02:20:08.382Z,20.87
2018-02-17T02:22:36.707Z,22.70
2018-02-17T02:25:04.338Z,18.37
2018-02-17T02:27:31.908Z,22.67
2018-02-17T02:29:59.464Z,23.10
2018-02-17T02:32:27.855Z,26.07
2018-02-17T02:34:55.424Z,25.73
2018-02-17T02:37:23.039Z,23.40
2018-02-17T02:39:51.364Z,14.97
2018-02-17T02:42:19.707Z,22.63
2018-02-17T02:44:47.314Z,23.30
2018-02-17T02:47:14.922Z,25.57
2018-02-17T02:49:42.542Z,20.40
2018-02-17T02:52:10.105Z,21.87
2018-02-17T02:54:37.713Z,17.93
2018-02-17T02:57:05.285Z,18.93
2018-02-17T02:59:32.848Z,21.07
2018-02-17T03:02:00.474Z,23.13
2018-02-17T03:04:28.811Z,20.20
2018-02-17T03:06:56.378Z,24.37
2018-02-17T03:09:23.978Z,16.77
2018-02-17T03:11:51.556Z,18.83
2018-02-17T03:14:19.197Z,18.70
2018-02-17T03:16:46.758Z,16.23
2018-02-17T03:19:14.358Z,18.37
2018-02-17T03:21:41.955Z,15.73
2018-02-17T03:24:10.280Z,16.70
2018-02-17T03:26:37.875Z,16.03
2018-02-17T03:29:05.438Z,18.53
2018-02-17T03:31:33.005Z,18.60
2018-02-17T03:34:01.378Z,19.20
2018-02-17T03:36:28.940Z,18.17
2018-02-17T03:38:56.510Z,18.43
2018-02-17T03:41:24.876Z,19.53
2018-02-17T03:43:52.473Z,22.63
2018-02-17T03:46:20.035Z,19.17
2018-02-17T03:48:47.641Z,15.47
2018-02-17T03:51:15.226Z,16.43
2018-02-17T03:53:43.631Z,20.07
2018-02-17T03:56:11.201Z,20.93
2018-02-17T03:58:38.801Z,16.30
2018-02-17T04:01:06.405Z,19.90
2018-02-17T04:03:33.997Z,23.23
2018-02-17T04:06:01.593Z,18.63
2018-02-17T04:08:29.926Z,19.33
2018-02-17T04:10:57.526Z,17.40
2018-02-17T04:13:25.092Z,15.97
2018-02-17T04:15:53.429Z,19.90
2018-02-17T04:18:21.021Z,16.83
2018-02-17T04:20:48.611Z,17.10
2018-02-17T04:23:16.165Z,21.00
2018-02-17T04:25:43.776Z,14.80
2018-02-17T04:28:11.409Z,16.60
2018-02-17T04:30:38.981Z,20.17
2018-02-17T04:33:06.541Z,17.33
2018-02-17T04:35:34.916Z,18.53
2018-02-17T04:38:02.484Z,17.53
2018-02-17T04:40:35.657Z,20.80
2018-02-17T04:43:08.979Z,20.80
2018-02-17T04:48:44.866Z,24.83
2018-02-17T04:51:12.466Z,22.90
2018-02-17T04:53:45.649Z,17.40
2018-02-17T04:56:16.059Z,19.53
2018-02-17T04:58:52.209Z,19.03
2018-02-17T05:01:22.379Z,23.17
2018-02-17T05:03:49.936Z,25.73
2018-02-17T05:06:32.413Z,18.97
2018-02-17T05:08:59.978Z,18.87
2018-02-17T05:11:27.586Z,18.07
2018-02-17T05:13:56.981Z,21.23
2018-02-17T05:16:30.330Z,20.70
2018-02-17T05:19:12.788Z,17.87
2018-02-17T05:21:43.346Z,19.43
2018-02-17T05:24:12.500Z,18.33
2018-02-17T05:26:40.075Z,16.93
2018-02-17T05:29:24.342Z,19.07
2018-02-17T05:32:01.818Z,16.20
2018-02-17T05:34:46.124Z,18.83
2018-02-17T05:37:13.689Z,21.37
2018-02-17T05:39:41.295Z,18.87
2018-02-17T05:42:09.773Z,21.53
2018-02-17T05:44:37.382Z,25.90
2018-02-17T05:47:05.906Z,23.47
2018-02-17T05:49:37.086Z,22.20
2018-02-17T05:52:04.690Z,20.80
2018-02-17T05:54:32.311Z,23.33
2018-02-17T05:56:59.882Z,25.03
2018-02-17T05:59:27.458Z,23.80
2018-02-17T06:01:55.066Z,29.37
2018-02-17T06:04:22.631Z,27.30
2018-02-17T06:06:50.408Z,29.83
2018-02-17T06:09:17.969Z,26.13
2018-02-17T06:11:45.541Z,31.50
2018-02-17T06:14:13.151Z,33.33
2018-02-17T06:16:40.716Z,27.67
2018-02-17T06:19:08.326Z,27.53
2018-02-17T06:21:36.660Z,27.30
2018-02-17T06:24:04.285Z,24.80
2018-02-17T06:26:31.853Z,30.13
2018-02-17T06:28:59.435Z,25.43
2018-02-17T06:31:27.035Z,28.77
2018-02-17T06:33:54.596Z,26.87
2018-02-17T06:36:22.198Z,30.67
2018-02-17T06:38:49.772Z,28.07
2018-02-17T06:41:17.386Z,34.93
2018-02-17T06:43:44.953Z,29.40
2018-02-17T06:46:12.524Z,26.13
2018-02-17T06:48:40.898Z,26.50
2018-02-17T06:51:08.490Z,30.87
2018-02-17T06:53:36.816Z,34.87
2018-02-17T06:56:04.386Z,35.13
2018-02-17T06:58:31.951Z,43.67
2018-02-17T07:01:00.320Z,42.93
2018-02-17T07:03:27.917Z,40.60
2018-02-17T07:05:55.521Z,37.67
2018-02-17T07:08:23.086Z,41.70
2018-02-17T07:10:50.693Z,35.20
2018-02-17T07:13:18.306Z,46.97
2018-02-17T07:15:45.879Z,35.17
2018-02-17T07:18:13.483Z,34.67
2018-02-17T07:20:41.058Z,37.67
2018-02-17T07:23:08.663Z,38.53
2018-02-17T07:25:36.257Z,31.37
2018-02-17T07:28:03.868Z,41.13
2018-02-17T07:30:31.434Z,37.80
2018-02-17T07:32:59.045Z,42.17
2018-02-17T07:35:26.622Z,35.13
2018-02-17T07:37:54.245Z,30.37
2018-02-17T07:40:21.815Z,36.00
2018-02-17T07:42:49.402Z,30.00
2018-02-17T07:45:17.008Z,37.97
2018-02-17T07:47:44.576Z,34.23
2018-02-17T07:50:12.207Z,37.77
2018-02-17T07:52:42.724Z,35.57
2018-02-17T07:55:11.846Z,41.20
2018-02-17T07:57:39.412Z,34.23
2018-02-17T08:00:07.051Z,42.77
2018-02-17T08:02:34.660Z,44.03
2018-02-17T08:05:02.242Z,41.07
2018-02-17T08:07:29.854Z,41.10
2018-02-17T08:09:57.476Z,40.57
2018-02-17T08:12:25.053Z,36.10
2018-02-17T08:14:56.500Z,33.63
2018-02-17T08:17:25.897Z,37.03
2018-02-17T08:19:55.400Z,39.43
2018-02-17T08:22:25.988Z,40.97
2018-02-17T08:24:55.452Z,46.93
2018-02-17T08:27:25.009Z,45.13
2018-02-17T08:29:53.901Z,40.87
2018-02-17T08:32:24.065Z,41.03
2018-02-17T08:34:51.642Z,42.00
2018-02-17T08:37:19.263Z,50.30
2018-02-17T08:39:46.840Z,54.80
2018-02-17T08:42:14.409Z,50.30
2018-02-17T08:44:42.017Z,54.60
2018-02-17T08:47:09.585Z,60.23
2018-02-17T08:49:37.921Z,66.67
2018-02-17T08:52:05.554Z,55.50
2018-02-17T08:54:33.146Z,55.77
2018-02-17T08:57:00.713Z,59.20
2018-02-17T08:59:28.316Z,48.57
2018-02-17T09:01:55.891Z,62.83
2018-02-17T09:04:23.506Z,60.63
2018-02-17T09:06:51.080Z,48.23
2018-02-17T09:09:18.639Z,62.07
2018-02-17T09:11:46.299Z,59.07
2018-02-17T09:14:13.866Z,63.77
2018-02-17T09:16:42.246Z,60.57
2018-02-17T09:19:09.814Z,69.67
2018-02-17T09:21:37.390Z,67.70
2018-02-17T09:24:05.762Z,76.67
2018-02-17T09:26:34.157Z,78.00
2018-02-17T09:29:01.722Z,72.93
2018-02-17T09:31:29.286Z,73.20
2018-02-17T09:33:56.894Z,72.47
2018-02-17T09:36:24.489Z,68.03
2018-02-17T09:38:52.060Z,72.30
2018-02-17T09:41:19.694Z,68.20
2018-02-17T09:43:47.313Z,67.37
2018-02-17T09:46:14.880Z,66.10
2018-02-17T09:48:42.483Z,76.13
2018-02-17T09:51:10.048Z,83.33
2018-02-17T09:53:37.649Z,80.57
2018-02-17T09:56:05.222Z,72.77
2018-02-17T09:58:32.822Z,74.40
2018-02-17T10:01:00.392Z,83.70
2018-02-17T10:03:28.759Z,84.77
2018-02-17T10:05:56.322Z,96.57
2018-02-17T10:08:23.916Z,98.13
2018-02-17T10:10:51.474Z,90.07
2018-02-17T10:13:19.084Z,94.03
2018-02-17T10:15:46.724Z,98.87
2018-02-17T10:18:14.285Z,101.10
2018-02-17T10:20:41.900Z,90.73
2018-02-17T10:23:10.230Z,88.17
2018-02-17T10:25:37.846Z,92.40
2018-02-17T10:28:05.410Z,78.37
2018-02-17T10:30:32.975Z,82.00
2018-02-17T10:33:00.581Z,77.03
2018-02-17T10:35:30.073Z,81.00
2018-02-17T10:37:57.667Z,73.03
2018-02-17T10:40:25.244Z,62.17
2018-02-17T10:42:53.609Z,69.93
2018-02-17T10:45:21.177Z,66.03
2018-02-17T10:47:48.787Z,66.33
2018-02-17T10:50:16.386Z,67.20
2018-02-17T10:52:43.954Z,56.20
2018-02-17T10:55:11.557Z,63.53
2018-02-17T10:57:39.108Z,60.10
2018-02-17T11:00:06.730Z,66.00
2018-02-17T11:02:34.285Z,62.90
2018-02-17T11:05:01.847Z,61.87
2018-02-17T11:07:29.460Z,63.00
2018-02-17T11:09:57.021Z,57.93
2018-02-17T11:12:24.581Z,55.37
2018-02-17T11:14:52.186Z,57.17
2018-02-17T11:17:19.758Z,59.40
2018-02-17T11:19:47.358Z,57.73
2018-02-17T11:22:14.918Z,53.17
2018-02-17T11:24:42.513Z,54.33
2018-02-17T11:27:10.119Z,48.17
2018-02-17T11:29:37.729Z,47.20
2018-02-17T11:32:05.337Z,54.47
2018-02-17T11:34:32.909Z,50.00
2018-02-17T11:37:00.522Z,44.43
2018-02-17T11:39:28.085Z,46.83
2018-02-17T11:41:55.654Z,49.67
2018-02-17T11:44:23.254Z,54.27
2018-02-17T11:46:50.827Z,48.00
2018-02-17T11:49:19.218Z,47.27
2018-02-17T11:51:46.781Z,49.67
2018-02-17T11:54:14.347Z,47.77
2018-02-17T11:56:41.955Z,56.43
2018-02-17T11:59:09.528Z,50.87
2018-02-17T12:01:37.908Z,46.40
2018-02-17T12:04:06.023Z,57.27
2018-02-17T12:06:33.597Z,39.73
2018-02-17T12:09:01.221Z,48.77
2018-02-17T12:11:28.787Z,47.40
2018-02-17T12:13:56.397Z,45.47
2018-02-17T12:16:23.961Z,44.03
2018-02-17T12:18:51.517Z,44.13
2018-02-17T12:21:19.175Z,46.90
2018-02-17T12:23:46.779Z,41.90
2018-02-17T12:26:15.146Z,45.03
2018-02-17T12:28:43.184Z,39.17
2018-02-17T12:31:10.797Z,38.77
2018-02-17T12:33:39.172Z,44.63
2018-02-17T12:36:06.810Z,40.43
2018-02-17T12:38:34.445Z,39.37
2018-02-17T12:41:02.033Z,41.63
2018-02-17T12:43:29.633Z,40.33
2018-02-17T12:45:57.191Z,44.33
2018-02-17T12:48:25.513Z,50.73
2018-02-17T12:50:53.183Z,48.53
2018-02-17T12:53:20.756Z,45.83
2018-02-17T12:55:48.369Z,43.53
2018-02-17T12:58:15.924Z,44.50
2018-02-17T13:00:43.530Z,40.57
2018-02-17T13:03:11.110Z,40.60
2018-02-17T13:05:38.671Z,35.53
2018-02-17T13:08:06.275Z,39.00
2018-02-17T13:10:33.833Z,37.43
2018-02-17T13:13:01.428Z,35.03
2018-02-17T13:15:28.996Z,33.80
2018-02-17T13:17:56.606Z,35.67
2018-02-17T13:20:24.202Z,33.60
2018-02-17T13:22:51.757Z,33.20
2018-02-17T13:25:19.374Z,31.23
2018-02-17T13:27:47.707Z,34.03
2018-02-17T13:30:15.265Z,33.63
2018-02-17T13:32:42.882Z,31.23
2018-02-17T13:35:11.206Z,32.43
2018-02-17T13:37:38.769Z,36.47
2018-02-17T13:40:06.381Z,35.90
2018-02-17T13:42:33.945Z,35.00
2018-02-17T13:45:02.270Z,38.30
2018-02-17T13:47:29.866Z,34.47
2018-02-17T13:49:58.239Z,37.73
2018-02-17T13:52:25.997Z,33.93
2018-02-17T13:54:53.735Z,39.47
2018-02-17T13:57:21.349Z,42.40
2018-02-17T13:59:49.038Z,38.13
2018-02-17T14:02:16.633Z,34.07
2018-02-17T14:04:44.265Z,37.43
2018-02-17T14:07:12.178Z,39.80
2018-02-17T14:09:39.781Z,38.70
2018-02-17T14:12:07.376Z,41.33
2018-02-17T14:14:34.972Z,39.70
2018-02-17T14:17:02.570Z,42.40
2018-02-17T14:19:32.323Z,40.30
2018-02-17T14:22:00.765Z,39.47
2018-02-17T14:24:28.548Z,38.77
2018-02-17T14:26:56.114Z,42.83
2018-02-17T14:29:23.773Z,36.47
2018-02-17T14:31:54.466Z,36.73
2018-02-17T14:34:22.601Z,40.23
2018-02-17T14:36:50.986Z,45.00
2018-02-17T14:39:18.587Z,49.50
2018-02-17T14:41:46.185Z,42.80
2018-02-17T14:44:13.978Z,53.07
2018-02-17T14:46:41.573Z,47.60
2018-02-17T14:49:09.158Z,46.30
2018-02-17T14:51:36.751Z,53.67
2018-02-17T14:54:04.349Z,47.47
2018-02-17T14:56:32.170Z,44.93
2018-02-17T14:59:01.143Z,49.03
2018-02-17T15:01:28.738Z,43.43
2018-02-17T15:03:56.335Z,45.13
2018-02-17T15:06:23.940Z,47.80
2018-02-17T15:08:51.630Z,44.67
2018-02-17T15:11:19.235Z,42.60
2018-02-17T15:13:46.815Z,40.70
2018-02-17T15:16:14.424Z,40.93
2018-02-17T15:18:41.990Z,45.57
2018-02-17T15:21:09.545Z,46.70
2018-02-17T15:23:37.137Z,47.30
2018-02-17T15:26:04.738Z,44.17
2018-02-17T15:28:32.336Z,47.83
2018-02-17T15:30:59.902Z,50.00
2018-02-17T15:33:27.501Z,43.70
2018-02-17T15:35:55.091Z,46.27
2018-02-17T15:38:22.653Z,51.47
2018-02-17T15:40:51.675Z,42.53
2018-02-17T15:43:22.477Z,53.50
2018-02-17T15:45:52.094Z,45.77
2018-02-17T15:48:22.889Z,47.67
2018-02-17T15:50:50.751Z,42.70
2018-02-17T15:53:18.368Z,43.93
2018-02-17T15:55:45.974Z,47.73
2018-02-17T15:58:13.757Z,44.67
2018-02-17T16:00:41.323Z,52.73
2018-02-17T16:03:08.930Z,54.30
2018-02-17T16:05:37.249Z,54.47
2018-02-17T16:08:04.847Z,43.73
2018-02-17T16:10:32.418Z,49.80
2018-02-17T16:12:59.986Z,49.30
2018-02-17T16:15:27.745Z,49.23
2018-02-17T16:17:55.352Z,50.97
2018-02-17T16:20:22.952Z,53.20
2018-02-17T16:22:50.507Z,48.63
2018-02-17T16:25:18.116Z,49.30
2018-02-17T16:27:45.686Z,47.23
2018-02-17T16:30:13.256Z,49.47
2018-02-17T16:32:40.869Z,53.23
2018-02-17T16:35:08.436Z,53.87
2018-02-17T16:37:36.039Z,51.27
2018-02-17T16:40:03.670Z,55.97
2018-02-17T16:42:31.248Z,47.20
2018-02-17T16:44:58.868Z,49.67
2018-02-17T16:47:26.438Z,54.00
2018-02-17T16:49:54.061Z,58.53
2018-02-17T16:52:21.652Z,55.93
2018-02-17T16:54:49.279Z,55.43
2018-02-17T16:57:18.325Z,53.07
2018-02-17T16:59:47.378Z,48.77
2018-02-17T17:02:15.410Z,47.03
2018-02-17T17:04:43.089Z,48.23
2018-02-17T17:07:11.842Z,50.83
2018-02-17T17:09:39.992Z,52.93
2018-02-17T17:12:09.441Z,51.87
2018-02-17T17:14:40.317Z,55.17
2018-02-17T17:17:08.927Z,48.87
2018-02-17T17:19:37.667Z,49.43
2018-02-17T17:22:05.770Z,55.73
2018-02-17T17:24:35.017Z,52.43
2018-02-17T17:27:04.124Z,53.60
2018-02-17T17:29:33.347Z,45.57
2018-02-17T17:32:01.967Z,50.23
2018-02-17T17:34:30.116Z,50.40
2018-02-17T17:36:58.811Z,49.90
2018-02-17T17:39:26.461Z,52.80
2018-02-17T17:41:56.025Z,54.93
2018-02-17T17:44:26.321Z,58.77
2018-02-17T17:46:55.981Z,58.33
2018-02-17T17:49:28.691Z,60.07
2018-02-17T17:51:56.365Z,66.30
2018-02-17T17:54:23.949Z,61.17
2018-02-17T17:56:51.535Z,59.30
2018-02-17T17:59:19.149Z,68.63
2018-02-17T18:01:46.737Z,62.57
2018-02-17T18:04:14.316Z,60.23
2018-02-17T18:06:42.708Z,66.93
2018-02-17T18:09:10.296Z,61.77
2018-02-17T18:11:38.077Z,72.27
2018-02-17T18:14:06.612Z,71.00
2018-02-17T18:16:34.202Z,62.20
2018-02-17T18:19:01.780Z,75.67
2018-02-17T18:21:29.406Z,77.27
2018-02-17T18:23:57.049Z,83.87
2018-02-17T18:26:26.124Z,72.27
2018-02-17T18:28:53.757Z,84.77
2018-02-17T18:31:21.335Z,83.93
2018-02-17T18:33:48.916Z,78.73
2018-02-17T18:36:16.543Z,80.80
2018-02-17T18:38:44.172Z,77.77
2018-02-17T18:41:11.754Z,69.77
2018-02-17T18:43:39.366Z,80.47
2018-02-17T18:46:06.972Z,92.67
2018-02-17T18:48:34.557Z,82.50
2018-02-17T18:51:02.181Z,79.13
2018-02-17T18:53:29.758Z,108.00
2018-02-17T18:55:57.386Z,101.70
2018-02-17T18:58:25.735Z,101.30
2018-02-17T19:00:53.352Z,127.33
2018-02-17T19:03:20.981Z,122.83
2018-02-17T19:05:49.377Z,128.63
2018-02-17T19:08:17.724Z,142.43
2018-02-17T19:10:45.360Z,137.07
2018-02-17T19:13:12.934Z,130.17
2018-02-17T19:15:40.548Z,127.73
2018-02-17T19:18:08.178Z,132.30
2018-02-17T19:20:38.509Z,153.80
2018-02-17T19:23:06.481Z,166.50
2018-02-17T19:25:34.909Z,168.13
2018-02-17T19:28:02.540Z,144.37
2018-02-17T19:30:30.124Z,148.93
2018-02-17T19:32:57.724Z,221.70
2018-02-17T19:35:25.356Z,172.87
2018-02-17T19:37:52.979Z,176.13
2018-02-17T19:40:20.556Z,156.87
2018-02-17T19:42:48.146Z,181.77
2018-02-17T19:45:15.767Z,158.87
2018-02-17T19:47:43.360Z,177.97
2018-02-17T19:50:10.981Z,184.97
2018-02-17T19:52:41.964Z,189.57
2018-02-17T19:55:09.591Z,171.47
2018-02-17T19:57:37.983Z,125.03
2018-02-17T20:00:05.563Z,154.07
2018-02-17T20:02:33.141Z,240.47
2018-02-17T20:05:00.771Z,153.00
2018-02-17T20:07:28.376Z,148.13
2018-02-17T20:09:56.022Z,148.47
2018-02-17T20:12:23.612Z,128.53
2018-02-17T20:14:51.198Z,117.10
2018-02-17T20:17:18.827Z,139.37
2018-02-17T20:19:46.469Z,204.03
2018-02-17T20:22:14.050Z,137.33
2018-02-17T20:24:41.636Z,178.70
2018-02-17T20:27:09.274Z,134.20
2018-02-17T20:29:36.861Z,161.17
2018-02-17T20:32:04.483Z,124.57
2018-02-17T20:34:32.072Z,150.40
2018-02-17T20:36:59.692Z,126.03
2018-02-17T20:39:29.931Z,120.37
2018-02-17T20:41:57.516Z,131.23
2018-02-17T20:44:25.135Z,127.60
2018-02-17T20:46:52.707Z,127.80
2018-02-17T20:49:20.331Z,161.77
2018-02-17T20:51:47.914Z,112.50
2018-02-17T20:54:15.537Z,133.20
2018-02-17T20:56:43.122Z,103.53
2018-02-17T20:59:10.755Z,129.40
2018-02-17T21:01:38.338Z,112.07
2018-02-17T21:04:05.932Z,111.67
2018-02-17T21:06:33.556Z,109.50
2018-02-17T21:09:01.136Z,104.53
2018-02-17T21:11:28.760Z,101.90
2018-02-17T21:13:57.101Z,89.07
2018-02-17T21:16:24.723Z,119.13
2018-02-17T21:18:52.338Z,97.57
2018-02-17T21:21:19.968Z,107.03
2018-02-17T21:23:47.659Z,107.33
2018-02-17T21:26:15.204Z,89.73
2018-02-17T21:28:42.829Z,93.37
2018-02-17T21:31:10.410Z,114.20
2018-02-17T21:33:38.045Z,95.00
2018-02-17T21:36:05.678Z,110.80
2018-02-17T21:38:33.269Z,107.77
2018-02-17T21:41:00.956Z,98.47
2018-02-17T21:43:28.580Z,84.43
2018-02-17T21:45:56.162Z,100.13
2018-02-17T21:48:23.746Z,104.33
2018-02-17T21:50:51.381Z,103.30
2018-02-17T21:53:18.966Z,87.40
2018-02-17T21:55:46.602Z,92.30
2018-02-17T21:58:14.186Z,91.63
2018-02-17T22:00:41.760Z,99.73
2018-02-17T22:03:09.381Z,82.07
2018-02-17T22:05:36.956Z,80.37
2018-02-17T22:08:04.571Z,96.73
2018-02-17T22:10:32.155Z,72.13
2018-02-17T22:12:59.782Z,115.37
2018-02-17T22:15:27.432Z,85.80
2018-02-17T22:17:55.007Z,82.23
2018-02-17T22:20:22.624Z,80.90
2018-02-17T22:22:50.201Z,81.13
2018-02-17T22:25:17.824Z,94.17
2018-02-17T22:27:45.448Z,84.60
2018-02-17T22:30:13.064Z,93.67
2018-02-17T22:32:40.659Z,81.80
2018-02-17T22:35:08.267Z,87.03
2018-02-17T22:37:35.884Z,94.40
2018-02-17T22:40:03.657Z,81.40
2018-02-17T22:42:31.272Z,88.20
2018-02-17T22:44:58.856Z,73.80
2018-02-17T22:47:26.501Z,76.90
2018-02-17T22:49:54.388Z,84.13
2018-02-17T22:52:21.998Z,80.57
2018-02-17T22:54:49.620Z,77.37
2018-02-17T22:57:17.234Z,90.87
2018-02-17T22:59:44.859Z,77.83
2018-02-17T23:02:12.440Z,70.50
2018-02-17T23:04:40.020Z,69.63
2018-02-17T23:07:07.675Z,73.77
2018-02-17T23:09:35.255Z,76.83
2018-02-17T23:12:03.073Z,68.63
2018-02-17T23:14:30.692Z,85.53
2018-02-17T23:16:58.373Z,74.77
2018-02-17T23:19:25.988Z,69.60
2018-02-17T23:21:53.596Z,67.67
2018-02-17T23:24:21.225Z,85.80
2018-02-17T23:26:48.800Z,73.30
2018-02-17T23:29:16.383Z,72.23
2018-02-17T23:31:44.014Z,80.10
2018-02-17T23:34:12.437Z,66.77
2018-02-17T23:36:40.015Z,76.40
2018-02-17T23:39:07.629Z,71.40
2018-02-17T23:41:35.212Z,73.33
2018-02-17T23:44:02.839Z,76.77
2018-02-17T23:46:30.429Z,71.57
2018-02-17T23:48:58.056Z,76.40
2018-02-17T23:51:25.648Z,62.53
2018-02-17T23:53:53.284Z,75.20
2018-02-17T23:56:20.972Z,71.33
2018-02-17T23:58:48.778Z,75.63
